createdAt,value
2023-01-22T00:02:40.688Z,99226.60
2023-01-22T00:05:38.303Z,99231.40
2023-01-22T00:08:35.737Z,99232.80
2023-01-22T00:11:33.383Z,99229.80
2023-01-22T00:14:31.212Z,99233.80
2023-01-22T00:17:28.677Z,99225.20
2023-01-22T00:20:27.078Z,99226.80
2023-01-22T00:23:24.529Z,99227.40
2023-01-22T00:26:22.204Z,99224.00
2023-01-22T00:29:19.662Z,99231.60
2023-01-22T00:32:17.446Z,99236.20
2023-01-22T00:35:15.217Z,99235.40
2023-01-22T00:38:12.636Z,99237.60
2023-01-22T00:41:10.419Z,99242.00
2023-01-22T00:44:07.865Z,99247.20
2023-01-22T00:47:05.554Z,99236.00
2023-01-22T00:50:02.988Z,99233.80
2023-01-22T00:53:00.934Z,99238.00
2023-01-22T00:55:58.368Z,99235.40
2023-01-22T00:58:58.453Z,99231.60
2023-01-22T01:01:56.167Z,99232.00
2023-01-22T01:04:53.896Z,99234.40
2023-01-22T01:07:51.559Z,99236.20
2023-01-22T01:10:48.986Z,99243.80
2023-01-22T01:13:46.777Z,99249.60
2023-01-22T01:16:44.350Z,99254.00
2023-01-22T01:19:42.108Z,99262.60
2023-01-22T01:22:39.550Z,99266.40
2023-01-22T01:25:37.356Z,99271.20
2023-01-22T01:28:35.099Z,99274.80
2023-01-22T01:31:32.557Z,99269.40
2023-01-22T01:34:30.347Z,99271.40
2023-01-22T01:37:27.802Z,99272.40
2023-01-22T01:40:25.645Z,99284.60
2023-01-22T01:43:23.117Z,99299.20
2023-01-22T01:46:20.939Z,99303.80
2023-01-22T01:49:18.394Z,99284.60
2023-01-22T01:52:16.104Z,99273.60
2023-01-22T01:55:13.566Z,99266.80
2023-01-22T01:58:14.566Z,99265.80
2023-01-22T02:01:12.077Z,99260.60
2023-01-22T02:04:09.824Z,99259.20
2023-01-22T02:07:07.439Z,99261.60
2023-01-22T02:10:06.608Z,99268.40
2023-01-22T02:13:04.259Z,99265.40
2023-01-22T02:16:01.788Z,99273.60
2023-01-22T02:18:59.500Z,99272.40
2023-01-22T02:21:56.960Z,99271.40
2023-01-22T02:24:54.656Z,99268.40
2023-01-22T02:27:52.383Z,99264.00
2023-01-22T02:30:49.852Z,99256.80
2023-01-22T02:33:47.612Z,99262.40
2023-01-22T02:36:45.511Z,99264.80
2023-01-22T02:39:43.261Z,99267.80
2023-01-22T02:42:40.703Z,99270.80
2023-01-22T02:45:38.389Z,99263.00
2023-01-22T02:48:36.245Z,99268.60
2023-01-22T02:51:33.690Z,99268.80
2023-01-22T02:54:31.688Z,99275.20
2023-01-22T02:57:29.527Z,99272.40
2023-01-22T03:00:27.212Z,99282.00
2023-01-22T03:03:24.645Z,99274.40
2023-01-22T03:06:22.547Z,99259.60
2023-01-22T03:09:20.305Z,99257.80
2023-01-22T03:12:17.741Z,99246.00
2023-01-22T03:15:33.258Z,99244.80
2023-01-22T03:18:48.486Z,99255.20
2023-01-22T03:21:46.222Z,99256.40
2023-01-22T03:24:43.961Z,99255.40
2023-01-22T03:28:02.090Z,99249.00
2023-01-22T03:30:59.914Z,99248.20
2023-01-22T03:33:57.339Z,99250.20
2023-01-22T03:36:55.108Z,99247.60
2023-01-22T03:39:52.546Z,99245.80
2023-01-22T03:42:50.332Z,99236.60
2023-01-22T03:45:48.177Z,99254.80
2023-01-22T03:48:45.642Z,99256.60
2023-01-22T03:51:43.425Z,99260.80
2023-01-22T03:54:40.861Z,99263.60
2023-01-22T03:57:38.552Z,99265.00
2023-01-22T04:00:35.964Z,99261.60
2023-01-22T04:03:33.580Z,99260.80
2023-01-22T04:06:31.757Z,99271.20
2023-01-22T04:09:29.176Z,99266.80
2023-01-22T04:12:26.867Z,99263.00
2023-01-22T04:15:24.309Z,99265.40
2023-01-22T04:18:22.104Z,99265.80
2023-01-22T04:21:19.567Z,99266.80
2023-01-22T04:24:17.344Z,99258.40
2023-01-22T04:27:14.764Z,99263.40
2023-01-22T04:30:12.662Z,99255.40
2023-01-22T04:33:10.124Z,99252.00
2023-01-22T04:36:07.881Z,99252.80
2023-01-22T04:39:05.675Z,99252.00
2023-01-22T04:42:03.087Z,99257.00
2023-01-22T04:45:00.663Z,99253.20
2023-01-22T04:47:58.096Z,99249.40
2023-01-22T04:50:55.824Z,99254.00
2023-01-22T04:53:53.275Z,99266.40
2023-01-22T04:56:50.957Z,99268.60
2023-01-22T04:59:48.680Z,99273.80
2023-01-22T05:02:46.133Z,99261.40
2023-01-22T05:05:43.931Z,99262.80
2023-01-22T05:08:41.366Z,99259.20
2023-01-22T05:11:38.944Z,99261.40
2023-01-22T05:14:36.377Z,99263.20
2023-01-22T05:17:34.022Z,99266.60
2023-01-22T05:20:31.468Z,99272.20
2023-01-22T05:23:29.284Z,99285.80
2023-01-22T05:26:26.952Z,99285.80
2023-01-22T05:29:27.229Z,99285.80
2023-01-22T05:32:25.009Z,99284.20
2023-01-22T05:35:22.804Z,99284.20
2023-01-22T05:38:20.476Z,99289.40
2023-01-22T05:41:17.904Z,99285.60
2023-01-22T05:44:15.593Z,99291.20
2023-01-22T05:47:13.367Z,99298.40
2023-01-22T05:50:11.083Z,99298.00
2023-01-22T05:53:08.797Z,99297.20
2023-01-22T05:56:06.209Z,99302.60
2023-01-22T05:59:03.782Z,99307.60
2023-01-22T06:02:01.202Z,99308.40
2023-01-22T06:04:58.858Z,99299.80
2023-01-22T06:07:56.520Z,99299.40
2023-01-22T06:10:54.015Z,99293.80
2023-01-22T06:13:51.751Z,99295.40
2023-01-22T06:16:49.215Z,99300.60
2023-01-22T06:19:46.975Z,99303.00
2023-01-22T06:22:44.417Z,99305.60
2023-01-22T06:25:42.127Z,99311.20
2023-01-22T06:28:39.554Z,99310.40
2023-01-22T06:31:37.295Z,99314.60
2023-01-22T06:34:34.843Z,99313.80
2023-01-22T06:37:32.444Z,99313.40
2023-01-22T06:40:30.143Z,99317.80
2023-01-22T06:43:27.602Z,99316.60
2023-01-22T06:46:25.408Z,99316.80
2023-01-22T06:49:23.087Z,99317.40
2023-01-22T06:52:21.174Z,99317.20
2023-01-22T06:55:18.676Z,99318.60
2023-01-22T06:58:16.844Z,99317.60
2023-01-22T07:01:14.288Z,99320.80
2023-01-22T07:04:12.380Z,99322.40
2023-01-22T07:07:10.128Z,99319.40
2023-01-22T07:10:07.693Z,99325.20
2023-01-22T07:13:07.099Z,99325.40
2023-01-22T07:16:04.603Z,99331.20
2023-01-22T07:19:02.380Z,99331.40
2023-01-22T07:21:59.797Z,99339.60
2023-01-22T07:24:57.732Z,99340.60
2023-01-22T07:27:55.161Z,99339.40
2023-01-22T07:30:53.023Z,99344.40
2023-01-22T07:33:50.741Z,99343.80
2023-01-22T07:36:48.171Z,99346.60
2023-01-22T07:39:45.879Z,99354.00
2023-01-22T07:42:43.310Z,99354.60
2023-01-22T07:45:41.004Z,99360.80
2023-01-22T07:48:39.325Z,99356.60
2023-01-22T07:51:37.672Z,99359.80
2023-01-22T07:54:36.544Z,99359.00
2023-01-22T07:57:34.290Z,99367.80
2023-01-22T08:00:32.099Z,99365.60
2023-01-22T08:03:34.242Z,99364.40
2023-01-22T08:06:31.907Z,99369.60
2023-01-22T08:09:29.372Z,99370.20
2023-01-22T08:12:27.001Z,99372.80
2023-01-22T08:15:24.971Z,99374.60
2023-01-22T08:18:23.109Z,99379.20
2023-01-22T08:21:20.626Z,99378.20
2023-01-22T08:24:18.398Z,99381.60
2023-01-22T08:27:16.288Z,99389.60
2023-01-22T08:30:13.923Z,99387.80
2023-01-22T08:33:11.810Z,99391.20
2023-01-22T08:36:09.254Z,99392.60
2023-01-22T08:39:06.848Z,99395.20
2023-01-22T08:42:04.291Z,99396.20
2023-01-22T08:45:02.074Z,99401.20
2023-01-22T08:47:59.936Z,99397.40
2023-01-22T08:50:57.721Z,99398.60
2023-01-22T08:53:55.415Z,99398.80
2023-01-22T08:56:52.842Z,99401.40
2023-01-22T09:00:00.756Z,99400.40
2023-01-22T09:02:59.803Z,99407.00
2023-01-22T09:05:57.497Z,99413.60
2023-01-22T09:08:54.943Z,99414.80
2023-01-22T09:11:52.599Z,99417.60
2023-01-22T09:14:50.059Z,99415.80
2023-01-22T09:17:47.675Z,99425.00
2023-01-22T09:20:45.163Z,99427.40
2023-01-22T09:23:42.882Z,99433.20
2023-01-22T09:26:41.044Z,99432.40
2023-01-22T09:29:38.594Z,99435.20
2023-01-22T09:32:36.393Z,99428.20
2023-01-22T09:35:33.825Z,99426.60
2023-01-22T09:38:31.548Z,99429.20
2023-01-22T09:41:28.999Z,99437.60
2023-01-22T09:44:26.823Z,99433.00
2023-01-22T09:47:24.265Z,99432.20
2023-01-22T09:50:22.283Z,99435.20
2023-01-22T09:53:20.137Z,99438.80
2023-01-22T09:56:17.568Z,99425.00
2023-01-22T09:59:15.199Z,99431.60
2023-01-22T10:02:12.683Z,99431.20
2023-01-22T10:05:10.477Z,99441.00
2023-01-22T10:08:08.094Z,99440.20
2023-01-22T10:11:05.541Z,99439.20
2023-01-22T10:14:03.285Z,99438.80
2023-01-22T10:17:00.763Z,99449.80
2023-01-22T10:19:58.519Z,99451.40
2023-01-22T10:22:55.967Z,99457.40
2023-01-22T10:25:53.685Z,99455.80
2023-01-22T10:28:52.704Z,99456.20
2023-01-22T10:31:50.209Z,99459.00
2023-01-22T10:34:47.946Z,99461.20
2023-01-22T10:37:45.401Z,99460.60
2023-01-22T10:40:43.182Z,99461.60
2023-01-22T10:43:40.630Z,99465.00
2023-01-22T10:46:38.709Z,99460.40
2023-01-22T10:49:36.468Z,99463.40
2023-01-22T10:52:33.915Z,99459.40
2023-01-22T10:55:31.556Z,99456.00
2023-01-22T10:58:28.973Z,99457.80
2023-01-22T11:01:26.980Z,99455.80
2023-01-22T11:04:24.451Z,99455.20
2023-01-22T11:07:22.083Z,99460.80
2023-01-22T11:10:20.240Z,99458.80
2023-01-22T11:13:18.024Z,99458.40
2023-01-22T11:16:16.676Z,99456.00
2023-01-22T11:19:14.101Z,99454.80
2023-01-22T11:22:11.725Z,99453.40
2023-01-22T11:25:09.195Z,99455.40
2023-01-22T11:28:06.954Z,99454.40
2023-01-22T11:31:04.702Z,99460.80
2023-01-22T11:34:02.195Z,99460.40
2023-01-22T11:37:00.046Z,99452.20
2023-01-22T11:39:57.693Z,99456.60
2023-01-22T11:42:55.412Z,99459.40
2023-01-22T11:45:54.609Z,99456.00
2023-01-22T11:48:52.336Z,99459.60
2023-01-22T11:51:49.913Z,99458.80
2023-01-22T11:54:47.779Z,99453.00
2023-01-22T11:57:45.531Z,99456.80
2023-01-22T12:00:42.991Z,99464.20
2023-01-22T12:03:40.813Z,99466.20
2023-01-22T12:06:38.342Z,99471.00
2023-01-22T12:09:35.963Z,99467.40
2023-01-22T12:12:33.435Z,99463.80
2023-01-22T12:15:31.195Z,99465.80
2023-01-22T12:18:28.648Z,99463.40
2023-01-22T12:21:27.792Z,99463.40
2023-01-22T12:24:26.150Z,99472.40
2023-01-22T12:27:23.807Z,99472.00
2023-01-22T12:30:21.636Z,99477.60
2023-01-22T12:33:19.122Z,99471.00
2023-01-22T12:36:16.939Z,99476.40
2023-01-22T12:39:14.448Z,99481.40
2023-01-22T12:42:12.443Z,99478.60
2023-01-22T12:45:10.131Z,99480.60
2023-01-22T12:48:07.565Z,99487.60
2023-01-22T12:51:05.397Z,99491.40
2023-01-22T12:54:02.864Z,99491.00
2023-01-22T12:57:00.654Z,99496.20
2023-01-22T12:59:58.458Z,99507.80
2023-01-22T13:02:56.284Z,99503.80
2023-01-22T13:05:54.496Z,99508.60
2023-01-22T13:08:51.940Z,99511.00
2023-01-22T13:11:49.881Z,99512.40
2023-01-22T13:14:47.349Z,99511.40
2023-01-22T13:17:47.410Z,99513.00
2023-01-22T13:20:45.624Z,99516.60
2023-01-22T13:23:43.111Z,99514.20
2023-01-22T13:26:41.803Z,99517.20
2023-01-22T13:29:40.676Z,99520.40
2023-01-22T13:32:38.481Z,99526.00
2023-01-22T13:35:36.051Z,99529.80
2023-01-22T13:38:34.898Z,99532.80
2023-01-22T13:41:32.602Z,99541.60
2023-01-22T13:44:30.637Z,99544.80
2023-01-22T13:47:29.063Z,99549.20
2023-01-22T13:50:26.778Z,99546.20
2023-01-22T13:53:26.461Z,99549.00
2023-01-22T13:56:24.029Z,99554.00
2023-01-22T13:59:24.840Z,99556.20
2023-01-22T14:02:22.640Z,99560.40
2023-01-22T14:05:22.668Z,99565.00
2023-01-22T14:08:21.008Z,99563.20
2023-01-22T14:11:18.522Z,99563.20
2023-01-22T14:14:16.913Z,99569.00
2023-01-22T14:17:15.744Z,99578.20
2023-01-22T14:20:14.055Z,99576.80
2023-01-22T14:23:12.110Z,99581.60
2023-01-22T14:26:11.005Z,99584.60
2023-01-22T14:29:09.698Z,99586.40
2023-01-22T14:32:07.673Z,99583.40
2023-01-22T14:35:07.157Z,99583.40
2023-01-22T14:38:05.230Z,99596.20
2023-01-22T14:41:08.939Z,99599.40
2023-01-22T14:44:06.905Z,99604.20
2023-01-22T14:47:05.999Z,99606.40
2023-01-22T14:50:06.871Z,99611.00
2023-01-22T14:53:05.439Z,99610.80
2023-01-22T14:56:02.984Z,99608.40
2023-01-22T14:59:01.246Z,99608.00
2023-01-22T15:01:59.267Z,99614.40
2023-01-22T15:04:57.295Z,99613.80
2023-01-22T15:07:55.879Z,99625.00
2023-01-22T15:10:53.651Z,99624.60
2023-01-22T15:13:53.798Z,99627.40
2023-01-22T15:16:54.679Z,99625.80
2023-01-22T15:19:53.225Z,99626.00
2023-01-22T15:22:52.470Z,99627.00
2023-01-22T15:25:50.257Z,99633.00
2023-01-22T15:28:48.570Z,99635.60
2023-01-22T15:31:46.137Z,99634.20
2023-01-22T15:34:44.872Z,99634.20
2023-01-22T15:37:42.904Z,99630.00
2023-01-22T15:40:40.868Z,99631.80
2023-01-22T15:43:39.354Z,99633.20
2023-01-22T15:46:37.076Z,99638.60
2023-01-22T15:49:35.812Z,99654.60
2023-01-22T15:52:33.878Z,99663.60
2023-01-22T15:55:32.699Z,99671.20
2023-01-22T15:58:31.976Z,99673.20
2023-01-22T16:01:30.171Z,99675.40
2023-01-22T16:04:28.479Z,99674.60
2023-01-22T16:07:26.505Z,99677.20
2023-01-22T16:10:25.046Z,99677.00
2023-01-22T16:13:24.805Z,99676.60
2023-01-22T16:16:23.335Z,99664.20
2023-01-22T16:19:20.873Z,99666.60
2023-01-22T16:22:19.364Z,99666.40
2023-01-22T16:25:18.302Z,99679.60
2023-01-22T16:28:16.152Z,99693.60
2023-01-22T16:31:15.095Z,99703.00
2023-01-22T16:34:14.094Z,99697.20
2023-01-22T16:37:13.188Z,99697.20
2023-01-22T16:40:11.164Z,99698.00
2023-01-22T16:43:09.822Z,99698.20
2023-01-22T16:46:08.769Z,99700.40
2023-01-22T16:49:07.753Z,99704.00
2023-01-22T16:52:21.443Z,99710.40
2023-01-22T16:55:34.248Z,99719.80
2023-01-22T16:58:33.295Z,99716.20
2023-01-22T17:01:32.072Z,99721.60
2023-01-22T17:04:31.068Z,99726.40
2023-01-22T17:07:34.063Z,99731.20
2023-01-22T17:10:33.272Z,99735.20
2023-01-22T17:13:32.285Z,99735.60
2023-01-22T17:16:30.360Z,99735.40
2023-01-22T17:19:28.712Z,99732.00
2023-01-22T17:22:27.825Z,99731.00
2023-01-22T17:25:26.402Z,99726.40
2023-01-22T17:28:23.922Z,99729.20
2023-01-22T17:31:24.856Z,99740.20
2023-01-22T17:34:24.316Z,99743.40
2023-01-22T17:37:22.678Z,99750.40
2023-01-22T17:40:21.206Z,99758.20
2023-01-22T17:43:19.591Z,99758.80
2023-01-22T17:46:18.317Z,99767.20
2023-01-22T17:49:16.701Z,99776.40
2023-01-22T17:52:15.637Z,99774.60
2023-01-22T17:55:14.833Z,99776.80
2023-01-22T17:58:14.045Z,99771.60
2023-01-22T18:01:12.420Z,99778.20
2023-01-22T18:04:11.061Z,99786.40
2023-01-22T18:07:11.448Z,99780.80
2023-01-22T18:10:09.397Z,99789.00
2023-01-22T18:13:08.294Z,99792.80
2023-01-22T18:16:07.003Z,99788.20
2023-01-22T18:19:07.882Z,99801.00
2023-01-22T18:22:06.614Z,99806.60
2023-01-22T18:25:05.303Z,99801.80
2023-01-22T18:28:09.727Z,99805.80
2023-01-22T18:31:08.714Z,99819.60
2023-01-22T18:34:06.582Z,99824.40
2023-01-22T18:37:05.279Z,99822.60
2023-01-22T18:40:04.550Z,99827.00
2023-01-22T18:43:02.700Z,99832.00
2023-01-22T18:46:01.583Z,99829.20
2023-01-22T18:49:01.462Z,99832.60
2023-01-22T18:52:01.604Z,99836.00
2023-01-22T18:55:00.494Z,99839.60
2023-01-22T18:58:04.388Z,99836.60
2023-01-22T19:01:08.166Z,99838.40
2023-01-22T19:04:07.819Z,99834.60
2023-01-22T19:07:06.708Z,99839.60
2023-01-22T19:10:07.702Z,99841.40
2023-01-22T19:13:05.828Z,99840.80
2023-01-22T19:16:05.853Z,99837.60
2023-01-22T19:19:05.046Z,99839.20
2023-01-22T19:22:04.763Z,99843.80
2023-01-22T19:25:04.805Z,99842.20
2023-01-22T19:28:03.570Z,99844.40
2023-01-22T19:31:02.140Z,99842.00
2023-01-22T19:34:01.469Z,99853.40
2023-01-22T19:37:01.890Z,99858.20
2023-01-22T19:40:00.814Z,99854.40
2023-01-22T19:43:00.893Z,99855.40
2023-01-22T19:46:00.937Z,99849.60
2023-01-22T19:48:59.616Z,99844.40
2023-01-22T19:52:00.100Z,99853.80
2023-01-22T19:54:58.224Z,99865.60
2023-01-22T19:57:57.803Z,99862.80
2023-01-22T20:01:00.229Z,99864.40
2023-01-22T20:03:58.495Z,99868.00
2023-01-22T20:07:00.124Z,99875.60
2023-01-22T20:09:59.968Z,99882.60
2023-01-22T20:12:58.751Z,99898.40
2023-01-22T20:15:56.937Z,99903.40
2023-01-22T20:18:55.922Z,99902.80
2023-01-22T20:21:54.585Z,99904.20
2023-01-22T20:24:52.691Z,99914.60
2023-01-22T20:27:51.170Z,99908.20
2023-01-22T20:30:50.111Z,99900.80
2023-01-22T20:33:49.076Z,99903.80
2023-01-22T20:36:47.951Z,99899.20
2023-01-22T20:39:46.183Z,99918.40
2023-01-22T20:42:44.904Z,99915.40
2023-01-22T20:45:44.215Z,99917.00
2023-01-22T20:48:43.745Z,99918.00
2023-01-22T20:51:43.133Z,99923.80
2023-01-22T20:55:00.567Z,99935.00
2023-01-22T20:58:00.483Z,99943.80
2023-01-22T21:01:00.324Z,99942.60
2023-01-22T21:03:59.237Z,99941.20
2023-01-22T21:06:58.233Z,99934.00
2023-01-22T21:09:57.042Z,99931.40
2023-01-22T21:12:54.842Z,99928.00
2023-01-22T21:15:53.644Z,99925.00
2023-01-22T21:18:51.703Z,99922.80
2023-01-22T21:21:50.099Z,99920.60
2023-01-22T21:24:49.425Z,99925.80
2023-01-22T21:27:49.693Z,99938.00
2023-01-22T21:30:50.607Z,99942.40
2023-01-22T21:33:48.847Z,99945.80
2023-01-22T21:36:48.125Z,99953.40
2023-01-22T21:39:45.659Z,99959.80
2023-01-22T21:43:04.115Z,99957.40
2023-01-22T21:46:19.550Z,99960.20
2023-01-22T21:49:21.923Z,99967.20
2023-01-22T21:52:20.033Z,99971.40
2023-01-22T21:55:20.005Z,99971.20
2023-01-22T21:58:17.905Z,99969.20
2023-01-22T22:01:15.827Z,99969.40
2023-01-22T22:04:13.626Z,99976.40
2023-01-22T22:07:11.278Z,99976.80
2023-01-22T22:10:11.730Z,99974.80
2023-01-22T22:13:09.484Z,99971.80
2023-01-22T22:16:06.945Z,99977.00
2023-01-22T22:19:05.196Z,99976.40
2023-01-22T22:22:02.642Z,99979.80
2023-01-22T22:25:00.459Z,99976.60
2023-01-22T22:27:58.862Z,99972.60
2023-01-22T22:30:56.498Z,99973.20
2023-01-22T22:33:53.986Z,99987.60
2023-01-22T22:36:51.718Z,99989.60
2023-01-22T22:39:49.203Z,100005.40
2023-01-22T22:42:46.956Z,100012.00
2023-01-22T22:45:44.752Z,100018.60
2023-01-22T22:48:42.211Z,100019.80
2023-01-22T22:51:39.943Z,100024.80
2023-01-22T22:54:37.403Z,100026.20
2023-01-22T22:57:35.144Z,100027.00
2023-01-22T23:00:32.617Z,100014.80
2023-01-22T23:03:31.785Z,100023.00
2023-01-22T23:06:29.782Z,100017.20
2023-01-22T23:09:27.209Z,100009.00
2023-01-22T23:12:25.016Z,100005.80
2023-01-22T23:15:22.470Z,100007.00
2023-01-22T23:18:20.670Z,100005.80
2023-01-22T23:21:18.162Z,100004.00
2023-01-22T23:24:15.911Z,100000.20
2023-01-22T23:27:13.668Z,100005.40
2023-01-22T23:30:11.136Z,99997.00
2023-01-22T23:33:09.091Z,99990.20
2023-01-22T23:36:06.562Z,99997.00
2023-01-22T23:39:04.197Z,99992.60
2023-01-22T23:42:01.653Z,99998.40
2023-01-22T23:44:59.351Z,99991.80
2023-01-22T23:47:56.851Z,99999.40
2023-01-22T23:50:54.872Z,99999.40
2023-01-22T23:53:52.809Z,99996.20
2023-01-22T23:56:51.132Z,100005.40
2023-01-22T23:59:48.731Z,100004.80
